createdAt,value
2019-02-23T00:00:32.444Z,69.29
2019-02-23T00:03:00.876Z,69.27
2019-02-23T00:05:29.361Z,69.31
2019-02-23T00:07:57.901Z,69.31
2019-02-23T00:10:26.797Z,69.51
2019-02-23T00:12:55.248Z,69.61
2019-02-23T00:15:23.674Z,69.57
2019-02-23T00:17:52.129Z,69.57
2019-02-23T00:20:20.586Z,69.59
2019-02-23T00:22:49.057Z,69.70
2019-02-23T00:25:17.487Z,69.70
2019-02-23T00:27:45.927Z,69.70
2019-02-23T00:30:14.381Z,69.69
2019-02-23T00:32:43.194Z,69.66
2019-02-23T00:35:11.661Z,69.60
2019-02-23T00:37:40.089Z,69.65
2019-02-23T00:40:08.720Z,69.55
2019-02-23T00:42:37.237Z,69.50
2019-02-23T00:45:05.900Z,69.52
2019-02-23T00:47:34.379Z,69.48
2019-02-23T00:50:02.810Z,69.43
2019-02-23T00:52:31.252Z,69.41
2019-02-23T00:54:59.706Z,69.37
2019-02-23T00:57:28.148Z,69.33
2019-02-23T00:59:56.680Z,69.32
2019-02-23T01:02:25.124Z,69.27
2019-02-23T01:04:53.578Z,69.37
2019-02-23T01:07:22.089Z,69.40
2019-02-23T01:09:50.527Z,69.45
2019-02-23T01:12:19.010Z,69.53
2019-02-23T01:14:47.458Z,69.50
2019-02-23T01:17:15.885Z,69.65
2019-02-23T01:19:47.695Z,69.70
2019-02-23T01:22:14.494Z,69.68
2019-02-23T01:24:43.094Z,69.69
2019-02-23T01:27:11.967Z,69.67
2019-02-23T01:29:40.416Z,69.71
2019-02-23T01:32:08.948Z,69.74
2019-02-23T01:34:37.681Z,69.79
2019-02-23T01:37:06.213Z,69.90
2019-02-23T01:39:34.641Z,69.90
2019-02-23T01:42:03.077Z,69.92
2019-02-23T01:44:31.912Z,69.90
2019-02-23T01:47:00.389Z,69.93
2019-02-23T01:49:28.877Z,69.89
2019-02-23T01:51:57.339Z,69.89
2019-02-23T01:54:25.780Z,69.98
2019-02-23T01:56:54.320Z,69.96
2019-02-23T01:59:22.803Z,69.88
2019-02-23T02:01:51.274Z,69.87
2019-02-23T02:04:19.701Z,69.85
2019-02-23T02:06:48.213Z,69.89
2019-02-23T02:09:17.121Z,69.92
2019-02-23T02:11:46.007Z,69.92
2019-02-23T02:14:14.634Z,69.98
2019-02-23T02:16:43.073Z,70.00
2019-02-23T02:19:11.519Z,69.97
2019-02-23T02:21:39.952Z,69.89
2019-02-23T02:24:08.402Z,69.96
2019-02-23T02:26:37.129Z,70.01
2019-02-23T02:29:05.585Z,70.08
2019-02-23T02:31:34.061Z,70.06
2019-02-23T02:34:13.866Z,70.24
2019-02-23T02:36:42.349Z,70.22
2019-02-23T02:39:12.713Z,70.22
2019-02-23T02:41:41.147Z,70.10
2019-02-23T02:44:09.618Z,70.04
2019-02-23T02:46:38.086Z,70.09
2019-02-23T02:49:06.559Z,70.03
2019-02-23T02:51:35.004Z,69.94
2019-02-23T02:54:03.532Z,69.88
2019-02-23T02:56:32.000Z,69.84
2019-02-23T02:59:00.435Z,69.80
2019-02-23T03:01:28.894Z,69.72
2019-02-23T03:03:57.517Z,69.69
2019-02-23T03:06:25.968Z,69.76
2019-02-23T03:08:54.508Z,69.72
2019-02-23T03:11:22.965Z,69.76
2019-02-23T03:13:51.421Z,69.89
2019-02-23T03:16:19.858Z,69.95
2019-02-23T03:18:48.385Z,69.96
2019-02-23T03:21:16.820Z,69.93
2019-02-23T03:23:45.273Z,69.92
2019-02-23T03:26:13.784Z,69.92
2019-02-23T03:28:42.605Z,69.94
2019-02-23T03:31:11.057Z,70.00
2019-02-23T03:33:39.490Z,70.08
2019-02-23T03:36:07.955Z,70.22
2019-02-23T03:38:36.390Z,70.36
2019-02-23T03:41:04.856Z,70.49
2019-02-23T03:43:33.811Z,70.52
2019-02-23T03:46:02.439Z,70.54
2019-02-23T03:48:31.079Z,70.55
2019-02-23T03:50:59.569Z,70.62
2019-02-23T03:53:27.991Z,70.63
2019-02-23T03:55:56.753Z,70.48
2019-02-23T03:58:25.233Z,70.46
2019-02-23T04:00:53.667Z,70.52
2019-02-23T04:03:22.092Z,70.87
2019-02-23T04:05:50.734Z,71.03
2019-02-23T04:08:19.160Z,71.33
2019-02-23T04:10:47.609Z,71.38
2019-02-23T04:13:16.030Z,71.39
2019-02-23T04:15:44.488Z,71.36
2019-02-23T04:18:12.948Z,71.39
2019-02-23T04:20:41.570Z,71.12
2019-02-23T04:23:10.160Z,71.05
2019-02-23T04:25:38.773Z,70.96
2019-02-23T04:28:07.221Z,71.02
2019-02-23T04:30:35.741Z,71.05
2019-02-23T04:33:04.172Z,71.15
2019-02-23T04:35:32.796Z,71.12
2019-02-23T04:38:01.286Z,71.19
2019-02-23T04:40:29.698Z,71.20
2019-02-23T04:42:58.155Z,71.26
2019-02-23T04:45:26.584Z,71.21
2019-02-23T04:47:55.053Z,71.25
2019-02-23T04:50:23.531Z,71.03
2019-02-23T04:52:52.038Z,70.98
2019-02-23T04:55:20.486Z,71.03
2019-02-23T04:57:48.938Z,70.97
2019-02-23T05:00:17.376Z,71.05
2019-02-23T05:02:45.921Z,71.03
2019-02-23T05:05:14.390Z,71.09
2019-02-23T05:07:42.872Z,71.18
2019-02-23T05:10:11.454Z,71.24
2019-02-23T05:12:39.908Z,71.20
2019-02-23T05:15:10.276Z,71.11
2019-02-23T05:17:38.768Z,71.05
2019-02-23T05:20:07.942Z,71.15
2019-02-23T05:22:36.621Z,71.31
2019-02-23T05:25:05.444Z,71.49
2019-02-23T05:27:33.881Z,71.54
2019-02-23T05:30:02.344Z,71.47
2019-02-23T05:32:30.960Z,71.39
2019-02-23T05:34:59.385Z,71.31
2019-02-23T05:37:27.936Z,71.13
2019-02-23T05:39:56.443Z,71.16
2019-02-23T05:42:25.092Z,71.11
2019-02-23T05:44:53.632Z,71.03
2019-02-23T05:47:22.160Z,71.09
2019-02-23T05:49:50.637Z,71.03
2019-02-23T05:52:19.113Z,71.05
2019-02-23T05:54:47.693Z,71.14
2019-02-23T05:57:16.132Z,71.12
2019-02-23T05:59:44.571Z,71.09
2019-02-23T06:02:13.014Z,71.23
2019-02-23T06:04:41.550Z,71.16
2019-02-23T06:07:10.013Z,71.07
2019-02-23T06:09:39.118Z,71.06
2019-02-23T06:12:07.949Z,70.98
2019-02-23T06:14:36.399Z,70.97
2019-02-23T06:17:04.875Z,70.96
2019-02-23T06:19:33.426Z,70.83
2019-02-23T06:22:01.879Z,70.91
2019-02-23T06:24:30.337Z,70.67
2019-02-23T06:26:58.833Z,70.62
2019-02-23T06:29:27.425Z,70.51
2019-02-23T06:31:55.844Z,70.45
2019-02-23T06:34:24.360Z,70.44
2019-02-23T06:37:01.394Z,70.32
2019-02-23T06:39:29.894Z,70.48
2019-02-23T06:41:58.770Z,70.50
2019-02-23T06:44:27.250Z,70.46
2019-02-23T06:46:55.890Z,70.54
2019-02-23T06:49:24.348Z,70.66
2019-02-23T06:52:03.795Z,70.62
2019-02-23T06:54:23.791Z,70.53
2019-02-23T06:56:53.008Z,70.26
2019-02-23T06:59:26.945Z,70.14
2019-02-23T07:01:56.801Z,69.83
2019-02-23T07:04:27.282Z,69.85
2019-02-23T07:06:55.796Z,69.83
2019-02-23T07:09:24.193Z,69.84
2019-02-23T07:11:52.718Z,69.76
2019-02-23T07:14:21.144Z,69.79
2019-02-23T07:16:50.170Z,69.76
2019-02-23T07:19:18.631Z,69.61
2019-02-23T07:21:47.063Z,69.63
2019-02-23T07:24:15.563Z,69.54
2019-02-23T07:26:44.021Z,69.47
2019-02-23T07:29:12.458Z,69.34
2019-02-23T07:31:40.948Z,69.22
2019-02-23T07:34:09.508Z,69.18
2019-02-23T07:36:37.964Z,68.99
2019-02-23T07:39:07.153Z,68.76
2019-02-23T07:41:35.670Z,68.65
2019-02-23T07:44:04.215Z,68.47
2019-02-23T07:46:32.659Z,68.47
2019-02-23T07:49:01.319Z,68.39
2019-02-23T07:51:30.089Z,68.23
2019-02-23T07:53:58.599Z,68.12
2019-02-23T07:56:28.000Z,68.01
2019-02-23T07:58:57.493Z,67.94
2019-02-23T08:01:26.017Z,67.72
2019-02-23T08:03:54.497Z,67.52
2019-02-23T08:06:23.072Z,67.42
2019-02-23T08:08:53.130Z,67.34
2019-02-23T08:11:21.633Z,67.22
2019-02-23T08:13:50.098Z,67.00
2019-02-23T08:16:18.542Z,66.78
2019-02-23T08:18:47.056Z,66.69
2019-02-23T08:21:15.554Z,66.48
2019-02-23T08:23:45.658Z,66.39
2019-02-23T08:26:14.174Z,66.40
2019-02-23T08:28:42.618Z,66.21
2019-02-23T08:31:13.307Z,66.03
2019-02-23T08:33:41.262Z,65.89
2019-02-23T08:36:09.724Z,65.68
2019-02-23T08:38:38.508Z,65.51
2019-02-23T08:41:07.038Z,65.29
2019-02-23T08:43:35.624Z,65.04
2019-02-23T08:46:04.143Z,64.68
2019-02-23T08:48:33.543Z,64.44
2019-02-23T08:51:01.992Z,64.24
2019-02-23T08:53:30.449Z,64.01
2019-02-23T08:55:58.875Z,63.69
2019-02-23T08:58:27.360Z,63.26
2019-02-23T09:00:55.840Z,62.68
2019-02-23T09:03:24.388Z,62.71
2019-02-23T09:05:52.843Z,62.84
2019-02-23T09:08:21.282Z,62.63
2019-02-23T09:10:49.739Z,62.57
2019-02-23T09:13:18.172Z,62.28
2019-02-23T09:15:46.653Z,62.41
2019-02-23T09:18:15.094Z,62.55
2019-02-23T09:20:43.924Z,62.88
2019-02-23T09:23:12.400Z,62.92
2019-02-23T09:25:40.989Z,62.86
2019-02-23T09:28:09.547Z,63.19
2019-02-23T09:30:37.995Z,63.12
2019-02-23T09:33:06.561Z,62.87
2019-02-23T09:35:35.144Z,62.60
2019-02-23T09:38:03.620Z,62.87
2019-02-23T09:40:32.065Z,62.82
2019-02-23T09:43:00.518Z,62.88
2019-02-23T09:45:29.051Z,62.86
2019-02-23T09:47:57.586Z,62.82
2019-02-23T09:50:26.018Z,62.80
2019-02-23T09:52:55.996Z,62.78
2019-02-23T09:55:24.528Z,63.09
2019-02-23T09:57:53.065Z,63.00
2019-02-23T10:00:21.551Z,62.65
2019-02-23T10:02:50.014Z,62.65
2019-02-23T10:05:18.486Z,62.72
2019-02-23T10:07:46.976Z,62.70
2019-02-23T10:10:15.468Z,62.89
2019-02-23T10:12:44.012Z,62.94
2019-02-23T10:15:12.533Z,63.09
2019-02-23T10:17:41.183Z,62.96
2019-02-23T10:20:11.544Z,62.88
2019-02-23T10:22:40.058Z,62.49
2019-02-23T10:25:09.182Z,62.63
2019-02-23T10:27:37.705Z,62.17
2019-02-23T10:30:16.415Z,61.65
2019-02-23T10:32:44.971Z,61.72
2019-02-23T10:35:15.900Z,61.35
2019-02-23T10:37:44.506Z,61.28
2019-02-23T10:40:13.429Z,61.20
2019-02-23T10:42:41.859Z,60.75
2019-02-23T10:45:11.980Z,60.83
2019-02-23T10:47:40.416Z,61.15
2019-02-23T10:50:10.780Z,60.72
2019-02-23T10:52:39.670Z,60.99
2019-02-23T10:55:13.594Z,60.65
2019-02-23T10:57:42.047Z,60.89
2019-02-23T11:00:17.341Z,61.06
2019-02-23T11:02:45.970Z,61.44
2019-02-23T11:05:15.692Z,60.80
2019-02-23T11:07:44.306Z,61.13
2019-02-23T11:10:13.211Z,61.13
2019-02-23T11:12:41.787Z,60.81
2019-02-23T11:15:12.633Z,60.46
2019-02-23T11:17:41.084Z,60.60
2019-02-23T11:20:11.455Z,60.60
2019-02-23T11:22:40.118Z,60.29
2019-02-23T11:25:10.654Z,60.25
2019-02-23T11:27:39.610Z,60.50
2019-02-23T11:30:11.108Z,59.84
2019-02-23T11:32:39.551Z,59.84
2019-02-23T11:35:10.262Z,59.40
2019-02-23T11:37:38.860Z,59.64
2019-02-23T11:40:10.302Z,58.82
2019-02-23T11:42:38.758Z,58.43
2019-02-23T11:45:08.427Z,58.52
2019-02-23T11:47:36.883Z,58.48
2019-02-23T11:50:08.363Z,58.32
2019-02-23T11:52:39.318Z,58.61
2019-02-23T11:55:07.482Z,58.00
2019-02-23T11:57:35.924Z,57.94
2019-02-23T12:00:07.809Z,57.52
2019-02-23T12:02:36.277Z,57.09
2019-02-23T12:05:04.846Z,56.96
2019-02-23T12:07:33.313Z,56.95
2019-02-23T12:10:01.733Z,57.29
2019-02-23T12:12:30.166Z,57.72
2019-02-23T12:14:58.695Z,57.43
2019-02-23T12:17:27.117Z,56.69
2019-02-23T12:19:55.596Z,57.06
2019-02-23T12:22:24.009Z,57.16
2019-02-23T12:24:52.549Z,57.69
2019-02-23T12:27:20.978Z,57.43
2019-02-23T12:29:49.426Z,57.17
2019-02-23T12:32:17.900Z,57.23
2019-02-23T12:34:46.481Z,56.79
2019-02-23T12:37:15.100Z,57.06
2019-02-23T12:39:43.547Z,56.78
2019-02-23T12:42:11.978Z,57.15
2019-02-23T12:44:40.452Z,56.82
2019-02-23T12:47:08.908Z,56.56
2019-02-23T12:49:37.353Z,56.00
2019-02-23T12:52:05.829Z,56.39
2019-02-23T12:54:34.276Z,56.30
2019-02-23T12:57:02.845Z,56.50
2019-02-23T12:59:31.315Z,56.17
2019-02-23T13:01:59.750Z,56.76
2019-02-23T13:04:28.204Z,56.97
2019-02-23T13:06:56.649Z,56.32
2019-02-23T13:09:27.440Z,56.65
2019-02-23T13:12:01.733Z,56.77
2019-02-23T13:14:36.085Z,56.49
2019-02-23T13:17:22.581Z,56.71
2019-02-23T13:20:08.893Z,56.60
2019-02-23T13:22:59.730Z,56.82
2019-02-23T13:25:43.309Z,56.82
2019-02-23T13:28:29.897Z,56.68
2019-02-23T13:31:33.381Z,56.85
2019-02-23T13:34:40.113Z,57.05
2019-02-23T13:37:16.809Z,57.27
2019-02-23T13:40:07.393Z,57.22
2019-02-23T13:43:03.191Z,57.36
2019-02-23T13:45:55.950Z,57.54
2019-02-23T13:48:39.045Z,56.96
2019-02-23T13:51:22.283Z,57.02
2019-02-23T13:53:56.639Z,57.27
2019-02-23T13:56:37.173Z,57.17
2019-02-23T13:59:20.269Z,56.99
2019-02-23T14:01:57.554Z,56.43
2019-02-23T14:04:29.114Z,56.65
2019-02-23T14:07:27.797Z,56.90
2019-02-23T14:10:16.282Z,56.68
2019-02-23T14:13:05.898Z,56.42
2019-02-23T14:15:43.185Z,56.74
2019-02-23T14:18:40.615Z,56.05
2019-02-23T14:21:18.663Z,55.98
2019-02-23T14:24:07.195Z,55.94
2019-02-23T14:26:53.982Z,56.18
2019-02-23T14:29:34.327Z,56.25
2019-02-23T14:32:14.773Z,56.13
2019-02-23T14:34:46.303Z,55.84
2019-02-23T14:37:20.355Z,55.92
2019-02-23T14:40:01.034Z,55.85
2019-02-23T14:43:05.985Z,55.47
2019-02-23T14:45:46.460Z,55.55
2019-02-23T14:48:23.569Z,55.27
2019-02-23T14:51:07.047Z,55.11
2019-02-23T14:53:44.402Z,55.57
2019-02-23T14:56:24.735Z,55.32
2019-02-23T14:59:13.357Z,55.67
2019-02-23T15:01:53.858Z,55.03
2019-02-23T15:04:37.594Z,55.13
2019-02-23T15:07:15.506Z,55.36
2019-02-23T15:09:58.760Z,55.06
2019-02-23T15:12:33.241Z,54.86
2019-02-23T15:15:26.115Z,55.30
2019-02-23T15:18:09.970Z,55.05
2019-02-23T15:20:55.768Z,55.05
2019-02-23T15:24:03.443Z,54.62
2019-02-23T15:26:34.954Z,55.22
2019-02-23T15:29:12.252Z,55.25
2019-02-23T15:31:43.749Z,54.01
2019-02-23T15:34:31.670Z,54.71
2019-02-23T15:37:03.180Z,55.58
2019-02-23T15:39:52.498Z,55.76
2019-02-23T15:42:32.208Z,55.88
2019-02-23T15:45:20.483Z,55.95
2019-02-23T15:47:52.140Z,56.06
2019-02-23T15:50:20.638Z,56.50
2019-02-23T15:52:49.306Z,56.42
2019-02-23T15:55:25.967Z,55.99
2019-02-23T15:57:47.882Z,56.00
2019-02-23T16:00:16.797Z,56.51
2019-02-23T16:02:45.726Z,56.84
2019-02-23T16:05:14.555Z,56.59
2019-02-23T16:07:43.090Z,56.79
2019-02-23T16:10:11.550Z,57.10
2019-02-23T16:12:40.020Z,57.42
2019-02-23T16:15:08.524Z,57.04
2019-02-23T16:17:36.982Z,56.72
2019-02-23T16:20:07.892Z,56.88
2019-02-23T16:22:36.359Z,57.16
2019-02-23T16:25:05.551Z,57.49
2019-02-23T16:27:33.995Z,57.76
2019-02-23T16:30:02.482Z,57.72
2019-02-23T16:32:30.935Z,58.01
2019-02-23T16:34:59.334Z,58.15
2019-02-23T16:37:27.790Z,58.12
2019-02-23T16:39:56.290Z,58.33
2019-02-23T16:42:24.745Z,58.43
2019-02-23T16:44:53.195Z,58.82
2019-02-23T16:47:21.673Z,58.81
2019-02-23T16:49:50.187Z,58.59
2019-02-23T16:52:18.682Z,58.11
2019-02-23T16:54:47.138Z,57.98
2019-02-23T16:57:17.446Z,57.98
2019-02-23T16:59:45.819Z,58.25
2019-02-23T17:02:14.257Z,58.52
2019-02-23T17:04:53.031Z,58.94
2019-02-23T17:07:13.097Z,59.14
2019-02-23T17:09:41.535Z,59.19
2019-02-23T17:12:09.975Z,59.29
2019-02-23T17:14:38.419Z,59.61
2019-02-23T17:17:06.878Z,59.77
2019-02-23T17:19:35.318Z,59.89
2019-02-23T17:22:03.763Z,60.11
2019-02-23T17:24:32.275Z,60.26
2019-02-23T17:27:00.795Z,60.41
2019-02-23T17:29:29.238Z,60.56
2019-02-23T17:31:57.675Z,60.76
2019-02-23T17:34:26.407Z,60.93
2019-02-23T17:36:54.865Z,61.02
2019-02-23T17:39:23.334Z,61.14
2019-02-23T17:41:51.778Z,61.21
2019-02-23T17:44:20.244Z,61.35
2019-02-23T17:46:48.695Z,61.51
2019-02-23T17:49:17.212Z,61.69
2019-02-23T17:51:45.686Z,61.82
2019-02-23T17:54:14.149Z,61.97
2019-02-23T17:56:42.650Z,62.09
2019-02-23T17:59:11.231Z,62.21
2019-02-23T18:01:39.727Z,62.22
2019-02-23T18:04:08.601Z,62.32
2019-02-23T18:06:37.038Z,62.30
2019-02-23T18:09:06.500Z,62.39
2019-02-23T18:11:35.020Z,62.45
2019-02-23T18:14:03.475Z,62.59
2019-02-23T18:16:31.940Z,62.60
2019-02-23T18:19:00.690Z,62.75
2019-02-23T18:21:29.421Z,62.62
2019-02-23T18:23:58.228Z,62.64
2019-02-23T18:26:26.718Z,62.59
2019-02-23T18:28:55.167Z,62.62
2019-02-23T18:31:24.259Z,62.62
2019-02-23T18:33:52.722Z,62.93
2019-02-23T18:36:21.229Z,62.93
2019-02-23T18:38:49.711Z,62.71
2019-02-23T18:41:18.164Z,62.64
2019-02-23T18:43:46.646Z,62.64
2019-02-23T18:46:15.192Z,62.77
2019-02-23T18:48:43.624Z,62.79
2019-02-23T18:51:12.082Z,62.77
2019-02-23T18:53:40.526Z,62.71
2019-02-23T18:56:08.997Z,62.49
2019-02-23T18:58:37.455Z,62.49
2019-02-23T19:01:06.000Z,62.71
2019-02-23T19:03:34.451Z,62.71
2019-02-23T19:06:02.873Z,62.73
2019-02-23T19:08:31.348Z,62.73
2019-02-23T19:10:59.791Z,62.74
2019-02-23T19:13:28.305Z,62.72
2019-02-23T19:15:56.752Z,62.76
2019-02-23T19:18:25.211Z,62.73
2019-02-23T19:20:53.661Z,62.88
2019-02-23T19:23:22.161Z,62.86
2019-02-23T19:25:50.651Z,62.86
2019-02-23T19:28:19.117Z,62.89
2019-02-23T19:30:48.693Z,62.93
2019-02-23T19:33:17.136Z,62.92
2019-02-23T19:35:45.623Z,62.98
2019-02-23T19:38:14.099Z,63.00
2019-02-23T19:40:42.522Z,63.05
2019-02-23T19:43:11.068Z,63.14
2019-02-23T19:45:39.587Z,63.21
2019-02-23T19:48:08.156Z,63.29
2019-02-23T19:50:42.556Z,63.50
2019-02-23T19:53:11.073Z,63.58
2019-02-23T19:55:40.035Z,63.55
2019-02-23T19:58:08.416Z,63.61
2019-02-23T20:00:36.930Z,63.52
2019-02-23T20:03:05.460Z,63.55
2019-02-23T20:05:33.972Z,63.59
2019-02-23T20:08:02.768Z,63.61
2019-02-23T20:10:31.217Z,63.62
2019-02-23T20:13:03.579Z,63.66
2019-02-23T20:15:31.962Z,63.69
2019-02-23T20:18:00.404Z,63.71
2019-02-23T20:20:28.859Z,63.74
2019-02-23T20:22:57.447Z,63.83
2019-02-23T20:25:25.877Z,63.86
2019-02-23T20:27:54.660Z,63.83
2019-02-23T20:30:23.202Z,63.80
2019-02-23T20:32:51.661Z,63.83
2019-02-23T20:35:20.303Z,63.80
2019-02-23T20:37:48.741Z,63.76
2019-02-23T20:40:17.230Z,63.83
2019-02-23T20:42:45.687Z,63.87
2019-02-23T20:45:14.222Z,63.90
2019-02-23T20:47:42.633Z,63.89
2019-02-23T20:50:11.674Z,63.86
2019-02-23T20:52:40.137Z,63.97
2019-02-23T20:55:09.338Z,63.99
2019-02-23T20:57:37.820Z,64.05
2019-02-23T21:00:09.322Z,64.05
2019-02-23T21:02:37.845Z,64.06
2019-02-23T21:05:14.018Z,64.04
2019-02-23T21:07:42.535Z,64.07
2019-02-23T21:10:11.031Z,64.10
2019-02-23T21:12:39.491Z,64.08
2019-02-23T21:15:12.267Z,64.05
2019-02-23T21:17:40.812Z,64.01
2019-02-23T21:20:25.622Z,64.07
2019-02-23T21:22:53.197Z,64.13
2019-02-23T21:25:21.767Z,64.15
2019-02-23T21:27:50.190Z,64.12
2019-02-23T21:30:18.627Z,64.16
2019-02-23T21:32:47.074Z,64.16
2019-02-23T21:35:15.520Z,64.15
2019-02-23T21:37:43.959Z,64.16
2019-02-23T21:40:12.520Z,64.21
2019-02-23T21:42:41.356Z,64.24
2019-02-23T21:45:10.331Z,64.38
2019-02-23T21:47:39.717Z,64.67
2019-02-23T21:50:10.342Z,64.79
2019-02-23T21:52:38.852Z,64.92
2019-02-23T21:55:07.366Z,64.92
2019-02-23T21:57:35.829Z,64.86
2019-02-23T22:00:06.294Z,64.77
2019-02-23T22:02:34.743Z,64.73
2019-02-23T22:05:11.943Z,64.70
2019-02-23T22:07:34.258Z,64.60
2019-02-23T22:10:02.780Z,64.57
2019-02-23T22:12:31.236Z,64.51
2019-02-23T22:14:59.816Z,64.49
2019-02-23T22:17:28.283Z,64.49
2019-02-23T22:19:56.804Z,64.46
2019-02-23T22:22:25.262Z,64.40
2019-02-23T22:24:53.838Z,64.28
2019-02-23T22:27:30.922Z,64.20
2019-02-23T22:29:52.522Z,64.13
2019-02-23T22:32:21.127Z,64.08
2019-02-23T22:34:49.572Z,64.01
2019-02-23T22:37:18.060Z,64.02
2019-02-23T22:39:46.516Z,63.96
2019-02-23T22:42:14.965Z,63.82
2019-02-23T22:44:43.455Z,63.74
2019-02-23T22:47:11.892Z,63.68
2019-02-23T22:49:40.362Z,63.65
2019-02-23T22:52:10.851Z,63.62
2019-02-23T22:54:39.205Z,63.69
2019-02-23T22:57:07.652Z,63.69
2019-02-23T22:59:38.889Z,63.61
2019-02-23T23:02:07.333Z,63.60
2019-02-23T23:04:35.798Z,63.52
2019-02-23T23:07:04.469Z,63.45
2019-02-23T23:09:32.943Z,63.38
2019-02-23T23:12:01.388Z,63.31
2019-02-23T23:14:29.950Z,63.31
2019-02-23T23:16:58.631Z,63.34
2019-02-23T23:19:27.110Z,63.35
2019-02-23T23:21:55.583Z,63.33
2019-02-23T23:24:24.228Z,63.36
2019-02-23T23:26:52.750Z,63.32
2019-02-23T23:29:21.263Z,63.33
2019-02-23T23:31:49.789Z,63.37
2019-02-23T23:34:18.512Z,63.36
2019-02-23T23:36:46.982Z,63.29
2019-02-23T23:39:15.511Z,63.28
2019-02-23T23:41:44.217Z,63.29
2019-02-23T23:44:12.681Z,63.28
2019-02-23T23:46:41.155Z,63.28
2019-02-23T23:49:09.636Z,63.26
2019-02-23T23:51:38.075Z,63.15
2019-02-23T23:54:06.832Z,63.07
2019-02-23T23:56:35.314Z,63.12
2019-02-23T23:59:03.786Z,63.17
